Time;durP1;ratioP1;P1;durP2;ratioP2;P2;SDS_P1;SDS_P2;PMS_P1;PMS_P2;Temp;Humidity;BMP_temperature;BMP_pressure;BME280_temperature;BME280_humidity;BME280_pressure;Samples;Min_cycle;Max_cycle;Signal;HPM_P1;HPM_P2
2021/05/23 00:01:08;;;;;;;1.52;0.90;;;21.90;58.90;;;;;;5068932;28;20032;-41
2021/05/23 00:03:33;;;;;;;2.88;0.90;;;21.90;59.00;;;;;;5069038;28;20566;-41
2021/05/23 00:05:59;;;;;;;1.98;0.85;;;21.90;58.60;;;;;;5068804;28;20107;-39
2021/05/23 00:08:26;;;;;;;1.15;0.85;;;21.90;59.20;;;;;;5071270;28;20033;-38
2021/05/23 00:10:53;;;;;;;1.40;0.80;;;21.80;59.00;;;;;;5067391;28;20491;-41
2021/05/23 00:13:22;;;;;;;0.82;0.82;;;21.80;59.40;;;;;;5069417;28;20510;-42
2021/05/23 00:16:01;;;;;;;1.60;0.98;;;21.80;59.10;;;;;;5066676;28;20040;-39
2021/05/23 00:18:28;;;;;;;1.27;0.75;;;21.80;59.00;;;;;;5067201;28;20035;-41
2021/05/23 00:20:54;;;;;;;2.20;0.70;;;21.80;58.90;;;;;;5068227;28;23991;-42
2021/05/23 00:23:19;;;;;;;0.75;0.65;;;21.80;59.00;;;;;;5070375;28;20016;-41
2021/05/23 00:25:45;;;;;;;1.45;0.98;;;21.90;59.00;;;;;;5067475;28;20064;-40
2021/05/23 00:28:11;;;;;;;0.95;0.90;;;21.90;58.90;;;;;;5067083;28;20032;-42
2021/05/23 00:30:37;;;;;;;0.70;0.70;;;21.80;59.00;;;;;;5067144;28;20451;-35
2021/05/23 00:33:07;;;;;;;2.05;0.73;;;21.80;58.60;;;;;;5067868;28;20031;-42
2021/05/23 00:35:33;;;;;;;2.53;0.70;;;21.90;58.60;;;;;;5067770;28;20031;-43
2021/05/23 00:37:58;;;;;;;1.00;0.80;;;21.80;58.90;;;;;;5067158;28;20441;-39
2021/05/23 00:40:24;;;;;;;0.77;0.77;;;21.80;58.60;;;;;;5065091;28;20063;-41
2021/05/23 00:42:49;;;;;;;1.15;0.80;;;21.80;58.40;;;;;;5066946;28;20025;-41
2021/05/23 00:45:16;;;;;;;1.77;0.73;;;21.80;59.30;;;;;;5067130;28;20029;-40
2021/05/23 00:47:42;;;;;;;1.05;0.80;;;21.80;58.60;;;;;;5069393;28;20024;-42
2021/05/23 00:50:09;;;;;;;1.92;0.60;;;21.80;58.50;;;;;;5068634;28;20562;-43
2021/05/23 00:52:35;;;;;;;0.95;0.70;;;21.80;58.60;;;;;;5066710;28;20620;-43
2021/05/23 00:55:01;;;;;;;0.80;0.70;;;21.90;58.70;;;;;;5035106;28;20108;-43
2021/05/23 00:57:28;;;;;;;1.40;0.60;;;21.80;58.40;;;;;;5050312;28;20025;-42
2021/05/23 00:59:53;;;;;;;0.65;0.50;;;21.80;58.30;;;;;;5052099;28;20045;-42
2021/05/23 01:02:38;;;;;;;2.22;0.60;;;21.80;58.40;;;;;;5069713;28;20684;-42
2021/05/23 01:05:04;;;;;;;0.90;0.77;;;21.80;58.40;;;;;;5068150;28;20032;-40
2021/05/23 01:07:30;;;;;;;0.98;0.45;;;21.80;58.10;;;;;;5065773;28;20017;-41
2021/05/23 01:09:57;;;;;;;0.95;0.80;;;21.80;57.90;;;;;;5067647;28;20025;-42
2021/05/23 01:12:26;;;;;;;0.70;0.70;;;21.80;58.10;;;;;;5048690;28;20029;-43
2021/05/23 01:14:56;;;;;;;0.70;0.60;;;21.90;58.30;;;;;;5067478;28;20395;-41
2021/05/23 01:17:27;;;;;;;0.95;0.50;;;21.80;57.70;;;;;;5069709;28;20103;-43
2021/05/23 01:19:56;;;;;;;0.85;0.50;;;21.80;57.60;;;;;;5048186;28;20402;-42
2021/05/23 01:22:32;;;;;;;0.60;0.50;;;21.80;57.70;;;;;;5033898;28;20438;-42
2021/05/23 01:25:05;;;;;;;1.02;0.68;;;21.80;57.90;;;;;;5056548;28;20032;-41
2021/05/23 01:27:36;;;;;;;1.13;0.50;;;21.80;57.70;;;;;;5067297;28;20017;-42
2021/05/23 01:30:09;;;;;;;0.77;0.38;;;21.80;58.10;;;;;;5033685;28;20119;-43
2021/05/23 01:32:35;;;;;;;0.52;0.52;;;21.90;57.90;;;;;;5066106;28;20111;-42
2021/05/23 01:35:07;;;;;;;2.08;0.55;;;21.90;58.30;;;;;;5068626;28;20024;-41
2021/05/23 01:37:32;;;;;;;0.65;0.60;;;21.90;57.80;;;;;;5034965;28;20077;-42
2021/05/23 01:39:58;;;;;;;0.60;0.60;;;21.80;57.90;;;;;;5065029;28;20062;-45
2021/05/23 01:42:24;;;;;;;0.65;0.57;;;21.80;58.00;;;;;;5066766;28;20024;-45
2021/05/23 01:44:49;;;;;;;0.95;0.68;;;21.80;57.80;;;;;;5053185;28;20368;-43
2021/05/23 01:47:15;;;;;;;0.90;0.50;;;21.80;57.80;;;;;;5067071;28;20062;-43
2021/05/23 01:49:40;;;;;;;1.33;0.52;;;21.80;57.50;;;;;;5048018;28;20028;-42
2021/05/23 01:52:06;;;;;;;0.40;0.30;;;21.90;57.60;;;;;;5067184;28;20024;-43
2021/05/23 01:54:31;;;;;;;0.70;0.60;;;21.80;57.70;;;;;;5067199;28;20047;-42
2021/05/23 01:56:57;;;;;;;0.30;0.30;;;21.80;57.70;;;;;;5054223;28;20040;-40
2021/05/23 01:59:22;;;;;;;2.92;0.70;;;21.80;57.70;;;;;;5070137;28;20115;-42
2021/05/23 02:01:48;;;;;;;0.75;0.45;;;21.80;57.80;;;;;;5065948;28;20032;-41
2021/05/23 02:04:14;;;;;;;0.60;0.60;;;21.80;57.60;;;;;;5048973;28;20657;-42
2021/05/23 02:06:40;;;;;;;0.85;0.50;;;21.80;57.60;;;;;;5048899;28;20052;-43
2021/05/23 02:09:06;;;;;;;0.93;0.47;;;21.70;58.00;;;;;;5065888;28;20570;-42
2021/05/23 02:11:31;;;;;;;0.95;0.50;;;21.70;57.90;;;;;;5075227;28;20027;-42
2021/05/23 02:13:57;;;;;;;0.77;0.52;;;21.70;57.90;;;;;;5072530;28;20036;-43
2021/05/23 02:16:22;;;;;;;1.98;0.60;;;21.80;57.50;;;;;;5073617;28;20063;-43
2021/05/23 02:18:48;;;;;;;0.57;0.50;;;21.80;57.50;;;;;;5072364;28;20033;-42
2021/05/23 02:21:14;;;;;;;0.93;0.52;;;21.80;57.80;;;;;;5072520;28;20405;-42
2021/05/23 02:23:51;;;;;;;0.70;0.40;;;21.80;57.40;;;;;;5075447;28;20051;-42
2021/05/23 02:26:16;;;;;;;0.45;0.43;;;21.80;57.30;;;;;;5074552;28;20021;-42
2021/05/23 02:28:42;;;;;;;1.67;0.90;;;21.80;57.10;;;;;;5072373;28;20073;-42
2021/05/23 02:31:07;;;;;;;3.53;0.55;;;21.80;57.10;;;;;;5073165;28;20591;-42
2021/05/23 02:33:33;;;;;;;0.95;0.60;;;21.80;57.00;;;;;;5072525;28;20035;-42
2021/05/23 02:35:58;;;;;;;0.55;0.50;;;21.80;57.50;;;;;;5055329;28;20024;-42
2021/05/23 02:38:24;;;;;;;0.65;0.38;;;21.70;57.20;;;;;;5075659;28;20040;-43
2021/05/23 02:40:50;;;;;;;0.68;0.65;;;21.70;57.30;;;;;;5072070;28;20560;-41
2021/05/23 02:43:16;;;;;;;0.80;0.60;;;21.80;57.00;;;;;;5072169;28;20028;-41
2021/05/23 02:45:45;;;;;;;0.40;0.40;;;21.80;56.90;;;;;;5071937;28;20445;-41
2021/05/23 02:48:10;;;;;;;0.88;0.70;;;21.80;56.90;;;;;;5072382;28;20398;-37
2021/05/23 02:50:38;;;;;;;0.43;0.40;;;21.80;57.00;;;;;;5057759;28;20024;-41
2021/05/23 02:53:06;;;;;;;0.75;0.70;;;21.80;57.00;;;;;;5073621;28;20107;-42
2021/05/23 02:55:31;;;;;;;0.82;0.50;;;21.80;56.60;;;;;;5071785;28;20078;-40
2021/05/23 02:57:57;;;;;;;0.52;0.45;;;21.90;56.70;;;;;;5071988;28;20130;-41
2021/05/23 03:00:23;;;;;;;0.88;0.50;;;21.80;56.60;;;;;;5054293;28;20033;-41
2021/05/23 03:02:49;;;;;;;0.82;0.60;;;21.90;56.60;;;;;;5055972;28;20119;-41
2021/05/23 03:05:16;;;;;;;0.77;0.50;;;21.80;56.70;;;;;;5073551;28;20032;-41
2021/05/23 03:07:43;;;;;;;1.48;0.40;;;21.80;56.60;;;;;;5072021;28;20035;-41
2021/05/23 03:10:14;;;;;;;0.52;0.50;;;21.80;56.80;;;;;;5072578;28;20043;-42
2021/05/23 03:12:40;;;;;;;0.60;0.50;;;21.80;57.10;;;;;;5072028;28;20012;-42
2021/05/23 03:15:06;;;;;;;0.80;0.55;;;21.80;56.60;;;;;;5055549;28;20040;-41
2021/05/23 03:17:32;;;;;;;0.70;0.50;;;21.80;56.90;;;;;;5072275;28;20020;-41
2021/05/23 03:19:57;;;;;;;0.50;0.40;;;21.70;56.60;;;;;;5071807;28;20041;-40
2021/05/23 03:22:23;;;;;;;0.65;0.65;;;21.80;56.40;;;;;;5069581;28;20074;-41
2021/05/23 03:24:49;;;;;;;0.40;0.40;;;21.90;56.50;;;;;;5069492;28;20490;-41
2021/05/23 03:27:14;;;;;;;0.82;0.60;;;21.90;56.20;;;;;;5068826;28;20083;-41
2021/05/23 03:29:40;;;;;;;0.70;0.50;;;21.90;56.20;;;;;;5071422;28;20032;-41
2021/05/23 03:32:06;;;;;;;0.85;0.40;;;21.90;56.00;;;;;;5071208;28;20037;-42
2021/05/23 03:34:31;;;;;;;0.40;0.40;;;21.80;56.30;;;;;;5068509;28;20107;-41
2021/05/23 03:36:57;;;;;;;0.55;0.28;;;21.80;56.10;;;;;;5049706;28;20025;-41
2021/05/23 03:39:22;;;;;;;0.82;0.50;;;21.80;56.10;;;;;;5068265;28;20049;-41
2021/05/23 03:41:48;;;;;;;0.32;0.30;;;21.90;55.90;;;;;;5071031;28;20024;-41
2021/05/23 03:44:13;;;;;;;0.57;0.40;;;21.90;55.90;;;;;;5069668;28;20028;-42
2021/05/23 03:46:39;;;;;;;0.55;0.40;;;21.80;55.90;;;;;;5068140;28;20025;-41
2021/05/23 03:49:05;;;;;;;0.63;0.30;;;21.80;55.90;;;;;;5068157;28;20032;-41
2021/05/23 03:51:30;;;;;;;0.85;0.40;;;21.80;55.80;;;;;;5068570;28;20029;-40
2021/05/23 03:53:56;;;;;;;0.50;0.50;;;21.80;55.60;;;;;;5050680;28;20032;-42
2021/05/23 03:56:21;;;;;;;0.50;0.45;;;21.80;55.70;;;;;;5071203;28;20047;-41
2021/05/23 03:58:47;;;;;;;0.57;0.40;;;21.70;56.00;;;;;;5059076;28;20047;-41
2021/05/23 04:01:12;;;;;;;0.50;0.40;;;21.80;55.90;;;;;;5061406;28;20040;-41
2021/05/23 04:03:38;;;;;;;0.80;0.40;;;21.80;55.80;;;;;;5067685;28;20021;-41
2021/05/23 04:06:04;;;;;;;0.50;0.40;;;21.90;55.50;;;;;;5067976;28;20044;-42
2021/05/23 04:08:30;;;;;;;1.25;0.60;;;21.80;55.60;;;;;;5071831;28;20031;-41
2021/05/23 04:11:01;;;;;;;0.80;0.30;;;21.80;55.60;;;;;;5067990;28;20401;-41
2021/05/23 04:13:26;;;;;;;0.95;0.50;;;21.90;55.60;;;;;;5069122;28;20021;-41
2021/05/23 04:15:52;;;;;;;0.65;0.40;;;21.90;55.50;;;;;;5067252;28;20051;-41
2021/05/23 04:18:18;;;;;;;0.65;0.60;;;21.90;55.60;;;;;;5067637;28;20021;-40
2021/05/23 04:20:43;;;;;;;0.85;0.50;;;21.90;56.10;;;;;;5070285;28;20067;-40
2021/05/23 04:23:09;;;;;;;1.33;0.70;;;21.90;55.50;;;;;;5069358;28;20078;-41
2021/05/23 04:25:34;;;;;;;0.65;0.40;;;21.80;55.60;;;;;;5066573;28;20725;-39
2021/05/23 04:28:00;;;;;;;1.20;0.52;;;21.80;55.60;;;;;;5067247;28;20025;-41
2021/05/23 04:30:26;;;;;;;1.52;0.35;;;21.80;55.60;;;;;;5066756;28;20050;-41
2021/05/23 04:32:52;;;;;;;0.65;0.40;;;21.80;55.60;;;;;;5068383;28;20103;-41
2021/05/23 04:35:17;;;;;;;0.40;0.40;;;21.80;55.70;;;;;;5069868;28;20029;-41
2021/05/23 04:37:43;;;;;;;0.40;0.35;;;21.80;55.60;;;;;;5067338;28;20131;-41
2021/05/23 04:40:10;;;;;;;0.70;0.47;;;21.80;55.50;;;;;;5048364;28;20028;-41
2021/05/23 04:42:36;;;;;;;0.50;0.38;;;21.80;55.70;;;;;;5067025;28;20475;-41
2021/05/23 04:45:02;;;;;;;0.52;0.47;;;21.70;55.70;;;;;;5067173;28;20036;-41
2021/05/23 04:47:28;;;;;;;0.40;0.40;;;21.70;55.80;;;;;;5070997;28;20032;-41
2021/05/23 04:49:54;;;;;;;1.25;0.50;;;21.80;55.70;;;;;;5068185;28;20040;-42
2021/05/23 04:52:20;;;;;;;1.58;0.57;;;21.80;55.50;;;;;;5067052;28;20402;-41
2021/05/23 04:54:45;;;;;;;0.73;0.50;;;21.90;55.70;;;;;;5067151;28;20024;-41
2021/05/23 04:57:11;;;;;;;0.40;0.40;;;21.90;56.00;;;;;;5068222;28;20020;-41
2021/05/23 04:59:36;;;;;;;0.43;0.40;;;21.80;55.40;;;;;;5070533;28;20035;-41
2021/05/23 05:02:03;;;;;;;0.45;0.45;;;21.80;55.30;;;;;;5067980;28;20467;-42
2021/05/23 05:04:28;;;;;;;0.40;0.30;;;21.80;55.60;;;;;;5065996;28;20027;-42
2021/05/23 05:06:54;;;;;;;0.65;0.50;;;21.80;55.40;;;;;;5066809;28;20024;-41
2021/05/23 05:09:19;;;;;;;0.50;0.40;;;21.80;55.40;;;;;;5066868;28;20108;-41
2021/05/23 05:11:45;;;;;;;0.60;0.30;;;21.70;55.30;;;;;;5068628;28;20068;-41
2021/05/23 05:14:12;;;;;;;0.98;0.47;;;21.70;55.50;;;;;;5070313;28;20039;-41
2021/05/23 05:16:39;;;;;;;0.50;0.30;;;21.70;55.80;;;;;;5067587;28;20055;-42
2021/05/23 05:19:05;;;;;;;0.40;0.40;;;21.70;55.30;;;;;;5066086;28;20040;-42
2021/05/23 05:21:30;;;;;;;3.33;0.45;;;21.80;55.40;;;;;;5065693;28;20021;-41
2021/05/23 05:23:56;;;;;;;0.73;0.50;;;21.80;55.20;;;;;;5067379;28;20039;-41
2021/05/23 05:26:21;;;;;;;0.65;0.30;;;21.70;55.30;;;;;;5059259;28;20025;-41
2021/05/23 05:28:47;;;;;;;0.43;0.40;;;21.70;55.10;;;;;;5064585;28;20104;-41
2021/05/23 05:31:12;;;;;;;0.30;0.28;;;21.70;55.30;;;;;;5066201;28;20391;-42
2021/05/23 05:33:38;;;;;;;0.55;0.50;;;21.70;55.30;;;;;;5066279;28;20019;-41
2021/05/23 05:36:04;;;;;;;0.55;0.40;;;21.70;56.00;;;;;;5066935;28;20039;-41
2021/05/23 05:38:30;;;;;;;0.30;0.30;;;21.70;55.20;;;;;;5070305;28;20041;-42
2021/05/23 05:40:56;;;;;;;0.60;0.43;;;21.80;55.10;;;;;;5066041;28;20055;-40
2021/05/23 05:43:21;;;;;;;0.30;0.20;;;21.80;55.00;;;;;;5066095;28;20082;-41
2021/05/23 05:45:47;;;;;;;0.45;0.40;;;21.80;55.30;;;;;;5065709;28;20027;-42
2021/05/23 05:48:14;;;;;;;0.38;0.38;;;21.70;55.40;;;;;;5065093;28;20031;-42
2021/05/23 05:50:39;;;;;;;0.60;0.32;;;21.70;55.30;;;;;;5068949;28;20028;-41
2021/05/23 05:53:05;;;;;;;0.45;0.45;;;21.70;55.40;;;;;;5068631;28;20031;-42
2021/05/23 05:55:31;;;;;;;0.70;0.40;;;21.70;55.30;;;;;;5065962;28;20477;-45
2021/05/23 05:57:56;;;;;;;0.50;0.30;;;21.70;55.30;;;;;;5065200;28;20052;-42
2021/05/23 06:00:22;;;;;;;0.28;0.22;;;21.70;56.30;;;;;;5065841;28;20041;-41
2021/05/23 06:02:47;;;;;;;0.50;0.40;;;21.70;55.50;;;;;;5068321;28;20429;-42
2021/05/23 06:05:13;;;;;;;0.35;0.35;;;21.70;55.30;;;;;;5067739;28;20028;-41
2021/05/23 06:07:39;;;;;;;0.32;0.30;;;21.70;55.50;;;;;;5064961;28;20033;-43
2021/05/23 06:10:05;;;;;;;0.30;0.30;;;21.80;55.50;;;;;;5066060;28;20031;-42
2021/05/23 06:12:30;;;;;;;0.43;0.30;;;21.80;55.40;;;;;;5064887;28;20036;-42
2021/05/23 06:14:56;;;;;;;0.47;0.40;;;21.80;55.30;;;;;;5067301;28;20111;-42
2021/05/23 06:17:21;;;;;;;0.40;0.30;;;21.90;55.70;;;;;;5070110;28;20174;-43
2021/05/23 06:19:47;;;;;;;0.77;0.40;;;21.90;55.10;;;;;;5065873;28;20037;-42
2021/05/23 06:22:13;;;;;;;0.60;0.30;;;21.80;55.00;;;;;;5066834;28;20028;-42
2021/05/23 06:24:39;;;;;;;0.30;0.30;;;21.90;55.10;;;;;;5066578;28;20054;-42
2021/05/23 06:27:05;;;;;;;0.88;0.65;;;21.90;55.10;;;;;;5066986;28;20025;-43
2021/05/23 06:29:30;;;;;;;0.82;0.35;;;21.90;55.10;;;;;;5070086;28;20020;-42
2021/05/23 06:31:56;;;;;;;0.68;0.50;;;21.90;55.00;;;;;;5065332;28;20016;-42
2021/05/23 06:34:21;;;;;;;1.33;0.40;;;21.90;54.90;;;;;;5065795;28;20398;-42
2021/05/23 06:36:47;;;;;;;0.40;0.40;;;21.90;55.10;;;;;;5066650;28;20021;-42
2021/05/23 06:39:12;;;;;;;0.60;0.50;;;21.90;54.90;;;;;;5065427;28;20059;-43
2021/05/23 06:41:38;;;;;;;0.47;0.30;;;22.00;54.90;;;;;;5068100;28;20020;-41
2021/05/23 06:44:04;;;;;;;0.32;0.32;;;21.90;55.00;;;;;;5068409;28;20035;-43
2021/05/23 06:46:29;;;;;;;0.55;0.35;;;21.90;55.00;;;;;;5065671;28;20025;-43
2021/05/23 06:48:55;;;;;;;0.35;0.35;;;21.90;55.20;;;;;;5065686;28;20052;-43
2021/05/23 06:51:21;;;;;;;1.15;0.40;;;21.90;55.30;;;;;;5065631;28;20132;-43
2021/05/23 06:53:47;;;;;;;1.52;0.30;;;21.90;54.80;;;;;;5059222;28;20025;-42
2021/05/23 06:56:13;;;;;;;0.55;0.40;;;21.90;55.80;;;;;;5061394;28;20643;-42
2021/05/23 06:58:40;;;;;;;0.32;0.32;;;21.90;55.10;;;;;;5066815;28;20232;-42
2021/05/23 07:01:06;;;;;;;0.30;0.30;;;21.90;54.80;;;;;;5066491;28;20679;-41
2021/05/23 07:03:32;;;;;;;1.25;0.40;;;21.90;54.80;;;;;;5045930;28;20021;-42
2021/05/23 07:05:57;;;;;;;0.35;0.35;;;21.90;54.90;;;;;;5066392;28;20039;-42
2021/05/23 07:08:23;;;;;;;0.95;0.45;;;21.90;55.00;;;;;;5067767;28;20107;-42
2021/05/23 07:10:48;;;;;;;1.23;0.40;;;21.90;55.00;;;;;;5056519;28;20025;-41
2021/05/23 07:13:14;;;;;;;1.30;0.55;;;21.90;55.40;;;;;;5058682;28;20060;-42
2021/05/23 07:15:39;;;;;;;0.60;0.45;;;21.90;55.40;;;;;;5058255;28;20129;-41
2021/05/23 07:18:05;;;;;;;1.42;0.68;;;22.00;55.50;;;;;;5063936;28;20566;-42
2021/05/23 07:20:31;;;;;;;2.10;0.73;;;21.80;56.40;;;;;;5063926;28;20102;-42
2021/05/23 07:22:56;;;;;;;0.80;0.65;;;21.70;56.40;;;;;;5068595;28;20024;-42
2021/05/23 07:25:22;;;;;;;2.38;0.60;;;21.70;56.60;;;;;;5067346;28;20051;-40
2021/05/23 07:27:48;;;;;;;1.73;0.47;;;21.80;56.60;;;;;;5068295;28;20099;-42
2021/05/23 07:30:14;;;;;;;4.55;0.50;;;22.00;56.00;;;;;;5068801;28;20066;-42
2021/05/23 07:32:40;;;;;;;0.80;0.63;;;21.80;56.30;;;;;;5071406;28;20017;-42
2021/05/23 07:35:06;;;;;;;0.80;0.50;;;21.80;56.40;;;;;;5068980;28;20140;-42
2021/05/23 07:37:31;;;;;;;0.80;0.57;;;21.70;56.60;;;;;;5068308;28;20051;-42
2021/05/23 07:39:57;;;;;;;1.08;0.63;;;21.60;57.00;;;;;;5048548;28;20036;-42
2021/05/23 07:42:23;;;;;;;1.85;0.50;;;21.80;56.60;;;;;;5064416;28;20029;-41
2021/05/23 07:44:48;;;;;;;0.95;0.60;;;21.70;56.70;;;;;;5063327;28;20434;-42
2021/05/23 07:47:14;;;;;;;1.60;0.60;;;21.60;56.50;;;;;;5060941;28;20035;-42
2021/05/23 07:49:42;;;;;;;2.40;0.70;;;21.60;56.60;;;;;;5062510;28;20020;-42
2021/05/23 07:52:08;;;;;;;1.85;0.70;;;21.50;57.00;;;;;;5062950;28;20036;-42
2021/05/23 07:54:34;;;;;;;1.38;0.77;;;21.50;57.20;;;;;;5065184;28;20137;-42
2021/05/23 07:57:00;;;;;;;5.75;0.57;;;21.60;56.90;;;;;;5064868;28;20525;-41
2021/05/23 07:59:26;;;;;;;0.82;0.50;;;21.70;56.50;;;;;;5069654;28;20044;-42
2021/05/23 08:01:51;;;;;;;5.68;0.75;;;21.70;56.40;;;;;;5064264;28;20085;-42
2021/05/23 08:04:17;;;;;;;4.05;0.90;;;21.90;56.40;;;;;;5068465;28;20498;-44
2021/05/23 08:06:42;;;;;;;3.15;0.85;;;21.90;56.30;;;;;;5068003;28;20025;-43
2021/05/23 08:09:08;;;;;;;3.72;1.13;;;21.90;56.00;;;;;;5066550;28;20036;-43
2021/05/23 08:11:34;;;;;;;2.70;1.00;;;22.10;55.90;;;;;;5072689;28;20032;-45
2021/05/23 08:14:00;;;;;;;3.92;0.98;;;22.10;55.60;;;;;;5069072;28;20033;-42
2021/05/23 08:16:25;;;;;;;2.15;1.23;;;22.10;55.10;;;;;;5070567;28;20041;-42
2021/05/23 08:18:51;;;;;;;3.75;1.00;;;22.10;55.70;;;;;;5068690;28;20044;-42
2021/05/23 19:06:43;;;;;;;1.40;0.70;;;20.30;52.70;;;;;;5053213;27;20374;-36
2021/05/23 19:09:11;;;;;;;2.20;1.02;;;20.70;52.20;;;;;;5097552;27;20550;-36
2021/05/23 19:11:37;;;;;;;2.53;1.15;;;20.80;51.90;;;;;;5060852;28;20035;-37
2021/05/23 19:14:03;;;;;;;4.03;1.10;;;20.90;51.70;;;;;;5057796;28;20033;-36
2021/05/23 19:16:28;;;;;;;2.00;1.13;;;20.90;51.50;;;;;;5048254;28;20034;-39
2021/05/23 19:18:54;;;;;;;3.63;1.00;;;21.00;51.50;;;;;;5059008;28;20435;-38
2021/05/23 19:21:22;;;;;;;2.60;1.02;;;21.00;51.30;;;;;;5053011;28;20075;-39
2021/05/23 19:23:47;;;;;;;3.65;0.88;;;21.00;51.50;;;;;;5046685;27;20024;-38
2021/05/23 19:26:13;;;;;;;1.92;1.00;;;21.10;51.90;;;;;;5042582;28;20032;-37
2021/05/23 19:28:38;;;;;;;3.03;1.00;;;21.20;51.60;;;;;;5058552;28;20123;-38
2021/05/23 19:31:06;;;;;;;1.75;1.17;;;21.20;51.20;;;;;;5055655;28;20028;-38
2021/05/23 19:33:32;;;;;;;1.45;0.93;;;21.30;51.30;;;;;;5056750;28;20064;-38
2021/05/23 19:36:02;;;;;;;2.17;1.52;;;21.40;51.40;;;;;;5054783;27;20486;-38
2021/05/23 19:38:27;;;;;;;4.30;2.20;;;21.50;51.40;;;;;;5053693;28;20033;-37
2021/05/23 19:40:53;;;;;;;2.58;1.90;;;21.50;51.80;;;;;;5056052;28;20024;-37
2021/05/23 19:43:19;;;;;;;4.03;2.20;;;21.50;51.40;;;;;;5057470;28;20138;-37
2021/05/23 19:45:44;;;;;;;2.95;2.08;;;21.50;51.70;;;;;;4708918;28;10000575;-38
2021/05/23 19:48:10;;;;;;;2.28;2.08;;;21.60;51.50;;;;;;5055595;28;20409;-38
2021/05/23 19:50:36;;;;;;;2.50;2.10;;;21.60;51.80;;;;;;5057927;28;20489;-38
2021/05/23 19:53:02;;;;;;;3.15;2.00;;;21.70;51.40;;;;;;5057520;28;20056;-37
2021/05/23 19:55:29;;;;;;;4.15;2.42;;;21.70;51.50;;;;;;5057702;28;20049;-37
2021/05/23 19:57:55;;;;;;;3.92;1.90;;;21.60;51.40;;;;;;5045702;28;20036;-36
2021/05/23 20:00:21;;;;;;;4.60;2.30;;;21.70;51.60;;;;;;5056880;28;20477;-37
2021/05/23 20:02:46;;;;;;;3.05;1.83;;;21.70;52.10;;;;;;5056383;28;20033;-39
2021/05/23 20:05:16;;;;;;;3.13;1.63;;;21.60;51.70;;;;;;5057583;28;20524;-35
2021/05/23 20:07:41;;;;;;;3.90;2.13;;;21.70;51.30;;;;;;5042218;28;20065;-36
2021/05/23 20:10:08;;;;;;;1.88;1.50;;;21.60;51.70;;;;;;5043031;28;20056;-37
2021/05/23 20:12:33;;;;;;;2.15;1.95;;;21.70;51.70;;;;;;5036779;28;20038;-36
2021/05/23 20:14:59;;;;;;;2.08;1.85;;;21.70;51.60;;;;;;5045445;28;20086;-37
2021/05/23 20:17:24;;;;;;;1.80;1.40;;;21.70;52.00;;;;;;5044870;28;20029;-36
2021/05/23 20:19:50;;;;;;;3.08;1.73;;;21.70;51.70;;;;;;5046734;28;20040;-36
2021/05/23 20:22:16;;;;;;;2.75;1.70;;;21.70;52.00;;;;;;5043921;28;20061;-37
2021/05/23 20:24:41;;;;;;;2.28;1.70;;;21.70;52.40;;;;;;5041519;28;20040;-36
2021/05/23 20:27:07;;;;;;;2.38;1.88;;;21.70;52.60;;;;;;5043810;28;20025;-36
2021/05/23 20:29:33;;;;;;;2.38;1.92;;;21.70;52.20;;;;;;5041130;28;20246;-37
2021/05/23 20:31:59;;;;;;;2.20;1.80;;;21.60;53.30;;;;;;5041752;28;20021;-45
2021/05/23 20:34:24;;;;;;;2.08;1.50;;;21.70;52.40;;;;;;5043576;28;20044;-36
2021/05/23 20:36:50;;;;;;;1.83;1.40;;;21.60;52.50;;;;;;5036171;27;20036;-38
2021/05/23 20:39:15;;;;;;;2.20;1.50;;;21.60;52.50;;;;;;5038411;28;20037;-36
2021/05/23 20:41:41;;;;;;;1.73;1.45;;;21.70;52.60;;;;;;5044143;28;20512;-38
2021/05/23 20:44:07;;;;;;;3.53;1.38;;;21.70;52.80;;;;;;5039183;28;20394;-36
2021/05/23 20:46:32;;;;;;;1.52;1.10;;;21.70;52.70;;;;;;5035629;28;20018;-36
2021/05/23 20:48:58;;;;;;;1.60;1.30;;;21.80;52.70;;;;;;5063287;27;20443;-38
2021/05/23 20:51:24;;;;;;;5.00;1.30;;;21.80;52.60;;;;;;5042526;28;20100;-37
2021/05/23 20:53:50;;;;;;;2.60;1.35;;;21.70;52.50;;;;;;5046447;28;20031;-34
2021/05/23 20:56:16;;;;;;;3.55;1.45;;;21.60;52.70;;;;;;5030900;28;20416;-33
2021/05/23 20:58:41;;;;;;;5.40;1.50;;;21.70;52.80;;;;;;5036178;28;20471;-33
2021/05/23 21:01:07;;;;;;;3.85;1.25;;;21.60;52.90;;;;;;5040926;28;20029;-34
2021/05/23 21:03:32;;;;;;;1.63;1.40;;;21.50;53.20;;;;;;5046916;28;20021;-35
2021/05/23 21:05:58;;;;;;;1.65;1.33;;;21.60;53.50;;;;;;5040149;28;20653;-35
2021/05/23 21:08:27;;;;;;;1.90;1.38;;;21.50;53.30;;;;;;5045064;28;20451;-35
2021/05/23 21:10:53;;;;;;;2.83;1.20;;;21.50;53.30;;;;;;5044299;28;20029;-34
2021/05/23 21:13:18;;;;;;;2.17;1.27;;;21.60;52.90;;;;;;5044681;28;20398;-34
2021/05/23 21:15:46;;;;;;;2.80;1.67;;;21.70;52.90;;;;;;5042466;28;20094;-34
2021/05/23 21:18:12;;;;;;;3.67;1.50;;;21.60;53.20;;;;;;5056490;27;20025;-36
2021/05/23 21:20:38;;;;;;;1.25;1.10;;;21.60;53.60;;;;;;5046957;28;20039;-36
2021/05/23 21:23:03;;;;;;;2.05;1.55;;;21.60;53.30;;;;;;5046608;28;20052;-36
2021/05/23 21:25:29;;;;;;;1.83;1.30;;;21.50;53.60;;;;;;5043089;28;20081;-35
2021/05/23 21:27:55;;;;;;;3.65;1.45;;;21.60;53.50;;;;;;5041007;27;20047;-35
